createdAt,value
2023-03-10T00:00:28.374Z,76.78
2023-03-10T00:03:31.275Z,76.97
2023-03-10T00:06:35.465Z,76.23
2023-03-10T00:09:38.674Z,76.98
2023-03-10T00:12:41.341Z,77.31
2023-03-10T00:15:48.193Z,77.97
2023-03-10T00:18:51.108Z,78.82
2023-03-10T00:21:54.249Z,78.62
2023-03-10T00:24:57.043Z,77.68
2023-03-10T00:27:59.877Z,77.64
2023-03-10T00:31:06.158Z,77.09
2023-03-10T00:34:10.326Z,76.59
2023-03-10T00:37:12.981Z,77.27
2023-03-10T00:40:16.311Z,77.35
2023-03-10T00:43:18.975Z,78.00
2023-03-10T00:46:25.429Z,78.70
2023-03-10T00:49:28.441Z,79.40
2023-03-10T00:52:33.359Z,80.32
2023-03-10T00:55:36.360Z,79.35
2023-03-10T00:58:39.495Z,79.44
2023-03-10T01:01:42.828Z,80.15
2023-03-10T01:04:47.152Z,81.32
2023-03-10T01:07:49.851Z,83.31
2023-03-10T01:10:58.338Z,83.86
2023-03-10T01:14:04.072Z,84.24
2023-03-10T01:17:07.234Z,84.48
2023-03-10T01:20:15.102Z,85.82
2023-03-10T01:23:22.736Z,85.49
2023-03-10T01:26:25.928Z,85.98
2023-03-10T01:29:29.246Z,86.20
2023-03-10T01:32:32.020Z,87.04
2023-03-10T01:35:35.471Z,86.59
2023-03-10T01:38:39.392Z,89.33
2023-03-10T01:41:42.625Z,88.91
2023-03-10T01:45:07.607Z,90.28
2023-03-10T01:48:14.363Z,88.66
2023-03-10T01:51:18.424Z,92.98
2023-03-10T01:54:27.129Z,94.59
2023-03-10T01:57:33.681Z,90.69
2023-03-10T02:00:37.061Z,90.04
2023-03-10T02:04:14.117Z,93.40
2023-03-10T02:07:21.924Z,93.38
2023-03-10T02:10:26.617Z,95.69
2023-03-10T02:13:29.544Z,98.35
2023-03-10T02:16:32.809Z,99.25
2023-03-10T02:19:57.201Z,100.00
2023-03-10T02:23:01.407Z,100.00
2023-03-10T02:26:22.576Z,100.00
2023-03-10T02:29:32.794Z,100.00
2023-03-10T02:32:41.040Z,100.00
2023-03-10T02:35:44.966Z,100.00
2023-03-10T02:38:48.996Z,100.00
2023-03-10T02:41:52.935Z,100.00
2023-03-10T02:44:56.927Z,100.00
2023-03-10T02:47:59.788Z,100.00
2023-03-10T02:51:06.612Z,100.00
2023-03-10T02:54:10.351Z,100.00
2023-03-10T02:57:13.712Z,100.00
2023-03-10T03:00:17.787Z,100.00
2023-03-10T03:03:22.244Z,100.00
2023-03-10T03:06:25.883Z,100.00
2023-03-10T03:09:28.998Z,100.00
2023-03-10T03:12:32.298Z,100.00
2023-03-10T03:15:36.273Z,100.00
2023-03-10T03:18:39.388Z,100.00
2023-03-10T03:21:50.219Z,100.00
2023-03-10T03:24:57.148Z,100.00
2023-03-10T03:28:45.956Z,100.00
2023-03-10T03:35:27.598Z,100.00
2023-03-10T03:39:06.355Z,100.00
2023-03-10T03:42:09.973Z,100.00
2023-03-10T03:45:15.913Z,100.00
2023-03-10T03:48:22.267Z,100.00
2023-03-10T03:51:25.612Z,100.00
2023-03-10T03:54:29.087Z,100.00
2023-03-10T03:57:33.676Z,100.00
2023-03-10T04:00:38.605Z,100.00
2023-03-10T04:03:42.507Z,100.00
2023-03-10T04:06:47.206Z,100.00
2023-03-10T04:09:50.301Z,100.00
2023-03-10T04:12:53.332Z,100.00
2023-03-10T04:15:59.568Z,100.00
2023-03-10T04:19:03.379Z,100.00
2023-03-10T04:22:06.528Z,100.00
2023-03-10T04:25:10.463Z,100.00
2023-03-10T04:28:13.776Z,100.00
2023-03-10T04:31:18.821Z,100.00
2023-03-10T04:34:22.609Z,100.00
2023-03-10T04:37:27.313Z,100.00
2023-03-10T04:40:31.111Z,100.00
2023-03-10T04:43:34.097Z,100.00
2023-03-10T04:46:38.132Z,100.00
2023-03-10T04:49:41.983Z,100.00
2023-03-10T04:52:45.612Z,100.00
2023-03-10T04:55:48.479Z,100.00
2023-03-10T04:58:51.706Z,100.00
2023-03-10T05:01:54.915Z,100.00
2023-03-10T05:04:58.398Z,100.00
2023-03-10T05:08:01.477Z,100.00
2023-03-10T05:11:07.297Z,100.00
2023-03-10T05:14:12.289Z,100.00
2023-03-10T05:17:15.459Z,100.00
2023-03-10T05:20:20.251Z,100.00
2023-03-10T05:23:24.560Z,100.00
2023-03-10T05:26:28.033Z,100.00
2023-03-10T05:29:32.612Z,100.00
2023-03-10T05:32:37.254Z,100.00
2023-03-10T05:35:40.657Z,100.00
2023-03-10T05:38:43.992Z,100.00
2023-03-10T05:41:48.373Z,100.00
2023-03-10T05:44:51.393Z,100.00
2023-03-10T05:47:54.534Z,100.00
2023-03-10T05:51:03.135Z,100.00
2023-03-10T05:54:06.614Z,100.00
2023-03-10T05:57:09.471Z,100.00
2023-03-10T06:00:14.854Z,100.00
2023-03-10T06:03:19.058Z,100.00
2023-03-10T06:06:21.693Z,97.18
2023-03-10T06:09:27.241Z,94.64
2023-03-10T06:12:33.802Z,95.95
2023-03-10T06:15:41.699Z,96.96
2023-03-10T06:18:44.795Z,91.40
2023-03-10T06:21:53.141Z,93.90
2023-03-10T06:24:57.312Z,91.17
2023-03-10T06:28:00.864Z,91.96
2023-03-10T06:31:08.509Z,86.39
2023-03-10T06:34:11.795Z,88.63
2023-03-10T06:37:14.407Z,87.62
2023-03-10T06:40:17.350Z,84.75
2023-03-10T06:43:20.164Z,88.22
2023-03-10T06:46:23.074Z,93.51
2023-03-10T06:49:30.360Z,89.59
2023-03-10T06:52:34.489Z,88.25
2023-03-10T06:55:37.923Z,85.35
2023-03-10T06:58:42.505Z,85.96
2023-03-10T07:01:45.213Z,84.74
2023-03-10T07:04:48.214Z,82.85
2023-03-10T07:07:51.131Z,81.69
2023-03-10T07:10:54.765Z,79.06
2023-03-10T07:13:57.535Z,79.14
2023-03-10T07:17:00.647Z,78.16
2023-03-10T07:20:08.964Z,76.60
2023-03-10T07:23:13.038Z,76.76
2023-03-10T07:26:18.582Z,74.92
2023-03-10T07:29:21.633Z,75.28
2023-03-10T07:32:24.492Z,74.20
2023-03-10T07:35:27.694Z,74.94
2023-03-10T07:38:30.911Z,72.07
2023-03-10T07:41:34.690Z,72.48
2023-03-10T07:44:37.400Z,73.12
2023-03-10T07:47:40.334Z,71.85
2023-03-10T07:50:43.344Z,74.63
2023-03-10T07:53:46.442Z,72.48
2023-03-10T07:56:53.143Z,72.30
2023-03-10T07:59:56.244Z,71.23
2023-03-10T08:02:59.598Z,70.72
2023-03-10T08:06:05.443Z,72.26
2023-03-10T08:09:08.438Z,72.65
2023-03-10T08:12:14.920Z,66.97
2023-03-10T08:15:19.987Z,59.52
2023-03-10T08:18:26.012Z,56.72
2023-03-10T08:21:28.704Z,59.90
2023-03-10T08:24:35.476Z,61.36
2023-03-10T08:27:39.209Z,62.03
2023-03-10T08:31:00.897Z,65.07
2023-03-10T08:34:06.676Z,59.94
2023-03-10T08:37:10.358Z,55.70
2023-03-10T08:40:16.345Z,55.60
2023-03-10T08:43:20.352Z,55.96
2023-03-10T08:46:25.173Z,57.26
2023-03-10T08:49:29.941Z,61.69
2023-03-10T08:52:35.640Z,63.23
2023-03-10T08:55:40.196Z,66.33
2023-03-10T08:58:43.794Z,65.99
2023-03-10T09:01:47.208Z,66.87
2023-03-10T09:04:50.987Z,68.57
2023-03-10T09:07:56.101Z,68.29
2023-03-10T09:10:58.885Z,64.82
2023-03-10T09:14:04.213Z,68.83
2023-03-10T09:17:11.797Z,69.13
2023-03-10T09:20:15.781Z,69.24
2023-03-10T09:23:19.893Z,70.69
2023-03-10T09:26:23.483Z,74.29
2023-03-10T09:29:42.197Z,75.93
2023-03-10T09:32:46.332Z,75.44
2023-03-10T09:36:05.987Z,73.71
2023-03-10T09:39:11.848Z,70.87
2023-03-10T09:42:40.756Z,67.49
2023-03-10T09:46:05.206Z,61.17
2023-03-10T09:49:15.069Z,60.23
2023-03-10T09:53:20.588Z,57.74
2023-03-10T09:56:32.687Z,59.09
2023-03-10T09:59:40.862Z,59.53
2023-03-10T10:02:47.412Z,62.81
2023-03-10T10:05:53.533Z,62.67
2023-03-10T10:09:11.857Z,62.01
2023-03-10T10:12:17.994Z,62.67
2023-03-10T10:15:27.107Z,61.98
2023-03-10T10:18:43.544Z,60.85
2023-03-10T10:22:14.713Z,60.15
2023-03-10T10:25:23.119Z,60.05
2023-03-10T10:29:07.016Z,59.61
2023-03-10T10:32:13.217Z,56.16
2023-03-10T10:35:16.024Z,55.29
2023-03-10T10:38:27.125Z,58.99
2023-03-10T10:41:34.533Z,61.63
2023-03-10T10:44:42.702Z,60.44
2023-03-10T10:47:50.874Z,63.19
2023-03-10T10:50:54.360Z,63.55
2023-03-10T10:54:18.345Z,62.17
2023-03-10T10:57:28.506Z,64.32
2023-03-10T11:00:39.718Z,65.67
2023-03-10T11:03:49.390Z,63.45
2023-03-10T11:06:53.304Z,62.64
2023-03-10T11:09:58.088Z,61.44
2023-03-10T11:13:17.138Z,59.75
2023-03-10T11:16:31.953Z,61.03
2023-03-10T11:20:07.949Z,59.47
2023-03-10T11:23:20.069Z,54.70
2023-03-10T11:26:50.714Z,54.35
2023-03-10T11:30:10.399Z,57.20
2023-03-10T11:33:22.409Z,58.23
2023-03-10T11:36:35.082Z,57.43
2023-03-10T11:40:07.707Z,58.87
2023-03-10T11:43:26.988Z,60.33
2023-03-10T11:46:41.137Z,62.31
2023-03-10T11:49:47.447Z,63.32
2023-03-10T11:53:01.343Z,62.85
2023-03-10T11:56:06.354Z,62.38
2023-03-10T11:59:24.862Z,57.71
2023-03-10T12:02:43.053Z,56.31
2023-03-10T12:05:52.194Z,61.19
2023-03-10T12:09:01.246Z,60.62
2023-03-10T12:12:06.519Z,60.91
2023-03-10T12:15:23.311Z,60.61
2023-03-10T12:18:28.084Z,61.07
2023-03-10T12:21:32.280Z,60.59
2023-03-10T12:24:47.698Z,60.02
2023-03-10T12:28:24.940Z,59.46
2023-03-10T12:31:37.528Z,58.01
2023-03-10T12:34:48.934Z,57.86
2023-03-10T12:38:33.047Z,58.17
2023-03-10T12:41:43.556Z,58.08
2023-03-10T12:45:17.449Z,57.96
2023-03-10T12:48:23.614Z,58.28
2023-03-10T12:51:31.204Z,58.44
2023-03-10T12:55:21.397Z,58.50
2023-03-10T12:58:27.356Z,60.57
2023-03-10T13:01:43.259Z,61.19
2023-03-10T13:04:49.629Z,60.33
2023-03-10T13:07:57.061Z,60.25
2023-03-10T13:11:00.872Z,60.58
2023-03-10T13:14:15.402Z,61.02
2023-03-10T13:17:25.141Z,59.57
2023-03-10T13:20:28.247Z,60.23
2023-03-10T13:23:34.515Z,60.00
2023-03-10T13:26:37.419Z,59.81
2023-03-10T13:29:56.170Z,59.69
2023-03-10T13:33:05.233Z,59.99
2023-03-10T13:36:21.217Z,60.99
2023-03-10T13:39:27.777Z,61.90
2023-03-10T13:42:43.417Z,60.83
2023-03-10T13:45:54.812Z,61.06
2023-03-10T13:49:06.727Z,62.02
2023-03-10T13:52:16.891Z,61.60
2023-03-10T13:55:21.741Z,60.98
2023-03-10T13:58:26.611Z,61.76
2023-03-10T14:01:35.003Z,62.03
2023-03-10T14:04:51.142Z,61.40
2023-03-10T14:08:01.100Z,61.97
2023-03-10T14:11:41.330Z,62.72
2023-03-10T14:14:44.615Z,61.72
2023-03-10T14:17:52.580Z,61.21
2023-03-10T14:20:56.677Z,61.16
2023-03-10T14:24:05.060Z,61.00
2023-03-10T14:27:10.110Z,61.33
2023-03-10T14:30:33.015Z,61.80
2023-03-10T14:33:36.865Z,62.38
2023-03-10T14:36:39.872Z,62.11
2023-03-10T14:39:42.588Z,61.61
2023-03-10T14:42:52.438Z,61.65
2023-03-10T14:45:57.585Z,62.18
2023-03-10T14:49:01.430Z,63.30
2023-03-10T14:52:10.566Z,64.04
2023-03-10T14:55:13.840Z,64.24
2023-03-10T14:58:30.773Z,64.87
2023-03-10T15:01:33.771Z,65.58
2023-03-10T15:04:37.121Z,65.72
2023-03-10T15:07:40.435Z,66.73
2023-03-10T15:10:50.187Z,67.77
2023-03-10T15:13:56.236Z,69.38
2023-03-10T15:16:58.913Z,70.45
2023-03-10T15:20:02.616Z,71.75
2023-03-10T15:23:05.515Z,72.64
2023-03-10T15:26:11.742Z,72.30
2023-03-10T15:29:19.584Z,73.04
2023-03-10T15:32:24.842Z,73.67
2023-03-10T15:35:29.343Z,74.95
2023-03-10T15:38:32.417Z,76.05
2023-03-10T15:41:39.428Z,76.62
2023-03-10T15:44:42.636Z,77.51
2023-03-10T15:47:49.075Z,77.92
2023-03-10T15:50:53.563Z,78.60
2023-03-10T15:53:56.392Z,79.19
2023-03-10T15:56:59.178Z,79.77
2023-03-10T16:00:02.090Z,79.45
2023-03-10T16:03:08.282Z,80.25
2023-03-10T16:06:12.757Z,80.93
2023-03-10T16:09:19.123Z,81.59
2023-03-10T16:12:25.486Z,81.85
2023-03-10T16:15:52.691Z,82.78
2023-03-10T16:18:55.885Z,82.84
2023-03-10T16:21:59.238Z,83.44
2023-03-10T16:25:02.228Z,84.18
2023-03-10T16:28:05.460Z,84.35
2023-03-10T16:31:14.148Z,85.13
2023-03-10T16:34:21.852Z,85.72
2023-03-10T16:37:29.634Z,86.01
2023-03-10T16:40:32.667Z,86.81
2023-03-10T16:43:36.690Z,87.09
2023-03-10T16:46:40.845Z,87.96
2023-03-10T16:49:43.854Z,88.62
2023-03-10T16:52:47.762Z,89.00
2023-03-10T16:55:50.694Z,89.37
2023-03-10T16:58:54.180Z,90.41
2023-03-10T17:01:57.025Z,91.86
2023-03-10T17:04:59.864Z,92.77
2023-03-10T17:08:06.147Z,92.83
2023-03-10T17:11:20.507Z,93.24
2023-03-10T17:14:24.354Z,93.61
2023-03-10T17:17:30.707Z,93.82
2023-03-10T17:20:34.152Z,93.52
2023-03-10T17:23:40.443Z,93.97
2023-03-10T17:26:45.488Z,94.93
2023-03-10T17:29:48.885Z,96.04
2023-03-10T17:32:52.522Z,98.13
2023-03-10T17:35:55.181Z,99.35
2023-03-10T17:39:00.693Z,100.00
2023-03-10T17:42:03.590Z,100.00
2023-03-10T17:45:09.827Z,100.00
2023-03-10T17:48:12.841Z,100.00
2023-03-10T17:51:18.149Z,100.00
2023-03-10T17:54:24.962Z,100.00
2023-03-10T17:57:29.691Z,100.00
2023-03-10T18:00:32.900Z,100.00
2023-03-10T18:03:37.347Z,100.00
2023-03-10T18:06:40.317Z,100.00
2023-03-10T18:09:43.556Z,100.00
2023-03-10T18:12:46.661Z,100.00
2023-03-10T18:15:51.236Z,100.00
2023-03-10T18:18:55.503Z,100.00
2023-03-10T18:22:05.595Z,100.00
2023-03-10T18:25:09.985Z,100.00
2023-03-10T18:28:16.818Z,100.00
2023-03-10T18:31:22.772Z,100.00
2023-03-10T18:34:26.312Z,100.00
2023-03-10T18:37:33.330Z,100.00
2023-03-10T18:40:36.933Z,100.00
2023-03-10T18:43:39.903Z,100.00
2023-03-10T18:46:43.864Z,100.00
2023-03-10T18:49:50.083Z,100.00
2023-03-10T18:52:55.981Z,100.00
2023-03-10T18:55:59.933Z,100.00
2023-03-10T18:59:03.433Z,100.00
2023-03-10T19:02:11.449Z,100.00
2023-03-10T19:05:16.214Z,100.00
2023-03-10T19:08:19.065Z,100.00
2023-03-10T19:11:24.363Z,100.00
2023-03-10T19:14:27.265Z,100.00
2023-03-10T19:17:32.473Z,100.00
2023-03-10T19:20:37.388Z,100.00
2023-03-10T19:23:41.640Z,100.00
2023-03-10T19:26:45.515Z,100.00
2023-03-10T19:29:52.681Z,100.00
2023-03-10T19:32:55.628Z,100.00
2023-03-10T19:36:03.316Z,100.00
2023-03-10T19:39:07.287Z,100.00
2023-03-10T19:42:11.259Z,100.00
2023-03-10T19:45:17.473Z,100.00
2023-03-10T19:48:20.611Z,100.00
2023-03-10T19:51:27.583Z,100.00
2023-03-10T19:54:32.314Z,100.00
2023-03-10T19:57:37.261Z,100.00
2023-03-10T20:00:41.774Z,100.00
2023-03-10T20:03:45.009Z,100.00
2023-03-10T20:06:47.926Z,100.00
2023-03-10T20:09:53.857Z,100.00
2023-03-10T20:13:17.466Z,100.00
2023-03-10T20:16:24.001Z,100.00
2023-03-10T20:19:27.535Z,100.00
2023-03-10T20:22:31.906Z,100.00
2023-03-10T20:25:35.077Z,100.00
2023-03-10T20:28:42.269Z,100.00
2023-03-10T20:32:05.767Z,100.00
2023-03-10T20:35:19.968Z,100.00
2023-03-10T20:38:23.466Z,100.00
2023-03-10T20:41:27.233Z,100.00
2023-03-10T20:44:58.218Z,100.00
2023-03-10T20:48:01.355Z,100.00
2023-03-10T20:51:15.096Z,100.00
2023-03-10T20:54:18.974Z,100.00
2023-03-10T20:57:22.268Z,100.00
2023-03-10T21:00:30.527Z,100.00
2023-03-10T21:03:34.138Z,100.00
2023-03-10T21:06:38.313Z,100.00
2023-03-10T21:09:42.169Z,100.00
2023-03-10T21:12:46.930Z,100.00
2023-03-10T21:15:50.136Z,100.00
2023-03-10T21:18:53.939Z,100.00
2023-03-10T21:21:56.846Z,100.00
2023-03-10T21:25:00.264Z,100.00
2023-03-10T21:28:03.709Z,100.00
2023-03-10T21:31:07.519Z,100.00
2023-03-10T21:34:13.565Z,100.00
2023-03-10T21:37:16.320Z,100.00
2023-03-10T21:40:25.226Z,100.00
2023-03-10T21:43:38.097Z,100.00
2023-03-10T21:46:41.350Z,100.00
2023-03-10T21:49:48.878Z,100.00
2023-03-10T21:52:52.162Z,100.00
2023-03-10T21:55:54.937Z,100.00
2023-03-10T21:59:01.066Z,100.00
2023-03-10T22:02:29.310Z,100.00
2023-03-10T22:05:34.100Z,100.00
2023-03-10T22:08:38.220Z,100.00
2023-03-10T22:11:41.234Z,100.00
2023-03-10T22:14:44.501Z,100.00
2023-03-10T22:17:49.018Z,100.00
2023-03-10T22:20:54.024Z,100.00
2023-03-10T22:23:57.312Z,100.00
2023-03-10T22:26:59.941Z,100.00
2023-03-10T22:30:03.854Z,100.00
2023-03-10T22:33:07.710Z,100.00
2023-03-10T22:36:12.981Z,100.00
2023-03-10T22:39:15.652Z,100.00
2023-03-10T22:42:18.761Z,100.00
2023-03-10T22:45:23.897Z,100.00
2023-03-10T22:48:27.059Z,100.00
2023-03-10T22:51:30.634Z,100.00
2023-03-10T22:54:33.826Z,100.00
2023-03-10T22:57:36.549Z,100.00
2023-03-10T23:00:42.516Z,100.00
2023-03-10T23:03:45.760Z,100.00
2023-03-10T23:06:49.151Z,100.00
2023-03-10T23:09:52.263Z,100.00
2023-03-10T23:12:56.817Z,100.00
2023-03-10T23:16:01.982Z,100.00
2023-03-10T23:19:08.579Z,100.00
2023-03-10T23:22:11.323Z,100.00
2023-03-10T23:25:24.100Z,100.00
2023-03-10T23:28:26.904Z,100.00
2023-03-10T23:31:31.155Z,100.00
2023-03-10T23:34:33.977Z,100.00
2023-03-10T23:37:37.040Z,100.00
2023-03-10T23:40:39.837Z,98.33
2023-03-10T23:43:43.390Z,97.80
2023-03-10T23:46:46.057Z,96.34
2023-03-10T23:49:48.910Z,96.28
2023-03-10T23:52:52.054Z,93.75
2023-03-10T23:56:00.088Z,94.92
2023-03-10T23:59:02.709Z,94.51
